sensor_id;sensor_type;location;lat;lon;timestamp;P1;durP1;ratioP1;P2;durP2;ratioP2
19907;SDS011;10116;53.112;7.356;2023-04-06T00:00:51;1.70;;;1.60;;
19907;SDS011;10116;53.112;7.356;2023-04-06T00:03:17;1.80;;;1.70;;
19907;SDS011;10116;53.112;7.356;2023-04-06T00:05:43;1.90;;;1.80;;
19907;SDS011;10116;53.112;7.356;2023-04-06T00:08:09;1.97;;;1.87;;
19907;SDS011;10116;53.112;7.356;2023-04-06T00:10:34;2.70;;;1.90;;
19907;SDS011;10116;53.112;7.356;2023-04-06T00:13:00;2.30;;;1.87;;
19907;SDS011;10116;53.112;7.356;2023-04-06T00:15:26;1.77;;;1.67;;
19907;SDS011;10116;53.112;7.356;2023-04-06T00:17:52;1.90;;;1.80;;
19907;SDS011;10116;53.112;7.356;2023-04-06T00:20:18;1.63;;;1.53;;
19907;SDS011;10116;53.112;7.356;2023-04-06T00:22:43;2.00;;;1.90;;
19907;SDS011;10116;53.112;7.356;2023-04-06T00:25:09;2.00;;;1.63;;
19907;SDS011;10116;53.112;7.356;2023-04-06T00:27:36;1.53;;;1.30;;
19907;SDS011;10116;53.112;7.356;2023-04-06T00:30:03;1.63;;;1.53;;
19907;SDS011;10116;53.112;7.356;2023-04-06T00:32:29;1.73;;;1.63;;
19907;SDS011;10116;53.112;7.356;2023-04-06T00:34:55;2.30;;;2.20;;
19907;SDS011;10116;53.112;7.356;2023-04-06T00:37:21;1.40;;;1.40;;
19907;SDS011;10116;53.112;7.356;2023-04-06T00:39:47;1.87;;;1.67;;
19907;SDS011;10116;53.112;7.356;2023-04-06T00:42:13;1.60;;;1.60;;
19907;SDS011;10116;53.112;7.356;2023-04-06T00:44:42;11.63;;;2.13;;
19907;SDS011;10116;53.112;7.356;2023-04-06T00:47:08;1.30;;;1.20;;
19907;SDS011;10116;53.112;7.356;2023-04-06T00:49:34;1.60;;;1.50;;
19907;SDS011;10116;53.112;7.356;2023-04-06T00:52:00;2.00;;;1.77;;
19907;SDS011;10116;53.112;7.356;2023-04-06T00:54:26;1.80;;;1.70;;
19907;SDS011;10116;53.112;7.356;2023-04-06T00:56:52;1.60;;;1.50;;
19907;SDS011;10116;53.112;7.356;2023-04-06T00:59:18;1.73;;;1.63;;
19907;SDS011;10116;53.112;7.356;2023-04-06T01:01:44;1.67;;;1.57;;
19907;SDS011;10116;53.112;7.356;2023-04-06T01:04:10;1.70;;;1.60;;
19907;SDS011;10116;53.112;7.356;2023-04-06T01:06:35;1.33;;;1.33;;
19907;SDS011;10116;53.112;7.356;2023-04-06T01:09:01;1.40;;;1.37;;
19907;SDS011;10116;53.112;7.356;2023-04-06T01:11:27;1.70;;;1.60;;
19907;SDS011;10116;53.112;7.356;2023-04-06T01:13:53;1.40;;;1.40;;
19907;SDS011;10116;53.112;7.356;2023-04-06T01:16:18;1.30;;;1.30;;
19907;SDS011;10116;53.112;7.356;2023-04-06T01:18:44;1.80;;;1.70;;
19907;SDS011;10116;53.112;7.356;2023-04-06T01:21:10;1.60;;;1.50;;
19907;SDS011;10116;53.112;7.356;2023-04-06T01:23:42;1.40;;;1.40;;
19907;SDS011;10116;53.112;7.356;2023-04-06T01:26:09;1.40;;;1.37;;
19907;SDS011;10116;53.112;7.356;2023-04-06T01:28:35;1.37;;;1.27;;
19907;SDS011;10116;53.112;7.356;2023-04-06T01:31:02;1.57;;;1.40;;
19907;SDS011;10116;53.112;7.356;2023-04-06T01:33:28;1.73;;;1.60;;
19907;SDS011;10116;53.112;7.356;2023-04-06T01:35:54;1.30;;;1.30;;
19907;SDS011;10116;53.112;7.356;2023-04-06T01:38:20;1.63;;;1.57;;
19907;SDS011;10116;53.112;7.356;2023-04-06T01:40:45;1.50;;;1.40;;
19907;SDS011;10116;53.112;7.356;2023-04-06T01:43:11;1.30;;;1.20;;
19907;SDS011;10116;53.112;7.356;2023-04-06T01:45:37;1.37;;;1.37;;
19907;SDS011;10116;53.112;7.356;2023-04-06T01:48:03;2.30;;;1.93;;
19907;SDS011;10116;53.112;7.356;2023-04-06T01:50:29;2.20;;;1.63;;
19907;SDS011;10116;53.112;7.356;2023-04-06T01:52:54;1.70;;;1.60;;
19907;SDS011;10116;53.112;7.356;2023-04-06T01:55:20;1.83;;;1.73;;
19907;SDS011;10116;53.112;7.356;2023-04-06T01:57:46;1.50;;;1.33;;
19907;SDS011;10116;53.112;7.356;2023-04-06T02:00:12;1.37;;;1.37;;
19907;SDS011;10116;53.112;7.356;2023-04-06T02:02:38;1.60;;;1.50;;
19907;SDS011;10116;53.112;7.356;2023-04-06T02:05:03;1.80;;;1.70;;
19907;SDS011;10116;53.112;7.356;2023-04-06T02:07:29;1.90;;;1.80;;
19907;SDS011;10116;53.112;7.356;2023-04-06T02:09:55;2.00;;;1.90;;
19907;SDS011;10116;53.112;7.356;2023-04-06T02:12:21;1.97;;;1.87;;
19907;SDS011;10116;53.112;7.356;2023-04-06T02:14:47;1.83;;;1.50;;
19907;SDS011;10116;53.112;7.356;2023-04-06T02:17:12;2.00;;;1.90;;
19907;SDS011;10116;53.112;7.356;2023-04-06T02:19:38;1.50;;;1.50;;
19907;SDS011;10116;53.112;7.356;2023-04-06T02:22:03;2.33;;;2.13;;
19907;SDS011;10116;53.112;7.356;2023-04-06T02:24:29;2.07;;;1.93;;
19907;SDS011;10116;53.112;7.356;2023-04-06T02:26:55;2.13;;;2.03;;
19907;SDS011;10116;53.112;7.356;2023-04-06T02:29:20;1.80;;;1.70;;
19907;SDS011;10116;53.112;7.356;2023-04-06T02:31:46;2.30;;;2.20;;
19907;SDS011;10116;53.112;7.356;2023-04-06T02:34:11;2.23;;;2.03;;
19907;SDS011;10116;53.112;7.356;2023-04-06T02:36:42;2.23;;;1.80;;
19907;SDS011;10116;53.112;7.356;2023-04-06T02:39:09;1.80;;;1.80;;
19907;SDS011;10116;53.112;7.356;2023-04-06T02:41:35;1.90;;;1.80;;
19907;SDS011;10116;53.112;7.356;2023-04-06T02:44:01;1.70;;;1.60;;
19907;SDS011;10116;53.112;7.356;2023-04-06T02:46:26;1.97;;;1.77;;
19907;SDS011;10116;53.112;7.356;2023-04-06T02:48:52;1.87;;;1.77;;
19907;SDS011;10116;53.112;7.356;2023-04-06T02:51:17;1.50;;;1.40;;
19907;SDS011;10116;53.112;7.356;2023-04-06T02:53:43;2.03;;;1.93;;
19907;SDS011;10116;53.112;7.356;2023-04-06T02:56:09;1.80;;;1.70;;
19907;SDS011;10116;53.112;7.356;2023-04-06T02:58:34;1.90;;;1.80;;
19907;SDS011;10116;53.112;7.356;2023-04-06T03:01:00;1.83;;;1.73;;
19907;SDS011;10116;53.112;7.356;2023-04-06T03:03:26;2.10;;;2.00;;
19907;SDS011;10116;53.112;7.356;2023-04-06T03:05:51;5.30;;;2.13;;
19907;SDS011;10116;53.112;7.356;2023-04-06T03:08:19;1.87;;;1.77;;
19907;SDS011;10116;53.112;7.356;2023-04-06T03:10:45;1.90;;;1.80;;
19907;SDS011;10116;53.112;7.356;2023-04-06T03:13:10;1.87;;;1.77;;
19907;SDS011;10116;53.112;7.356;2023-04-06T03:15:36;1.80;;;1.80;;
19907;SDS011;10116;53.112;7.356;2023-04-06T03:18:02;2.00;;;1.90;;
19907;SDS011;10116;53.112;7.356;2023-04-06T03:20:27;1.60;;;1.50;;
19907;SDS011;10116;53.112;7.356;2023-04-06T03:22:53;1.43;;;1.37;;
19907;SDS011;10116;53.112;7.356;2023-04-06T03:25:18;1.93;;;1.70;;
19907;SDS011;10116;53.112;7.356;2023-04-06T03:27:44;2.20;;;1.57;;
19907;SDS011;10116;53.112;7.356;2023-04-06T03:30:10;2.07;;;1.90;;
19907;SDS011;10116;53.112;7.356;2023-04-06T03:32:35;1.60;;;1.57;;
19907;SDS011;10116;53.112;7.356;2023-04-06T03:35:01;1.73;;;1.47;;
19907;SDS011;10116;53.112;7.356;2023-04-06T03:37:27;2.23;;;2.03;;
19907;SDS011;10116;53.112;7.356;2023-04-06T03:39:52;1.40;;;1.40;;
19907;SDS011;10116;53.112;7.356;2023-04-06T03:42:18;1.83;;;1.67;;
19907;SDS011;10116;53.112;7.356;2023-04-06T03:44:44;1.50;;;1.50;;
19907;SDS011;10116;53.112;7.356;2023-04-06T03:47:10;1.50;;;1.40;;
19907;SDS011;10116;53.112;7.356;2023-04-06T03:49:35;1.80;;;1.70;;
19907;SDS011;10116;53.112;7.356;2023-04-06T03:52:01;1.70;;;1.60;;
19907;SDS011;10116;53.112;7.356;2023-04-06T03:54:26;1.50;;;1.40;;
19907;SDS011;10116;53.112;7.356;2023-04-06T03:56:52;2.57;;;1.33;;
19907;SDS011;10116;53.112;7.356;2023-04-06T03:59:18;1.70;;;1.60;;
19907;SDS011;10116;53.112;7.356;2023-04-06T04:01:43;1.40;;;1.40;;
19907;SDS011;10116;53.112;7.356;2023-04-06T04:04:10;1.77;;;1.67;;
19907;SDS011;10116;53.112;7.356;2023-04-06T04:06:35;1.80;;;1.70;;
19907;SDS011;10116;53.112;7.356;2023-04-06T04:09:01;1.90;;;1.80;;
19907;SDS011;10116;53.112;7.356;2023-04-06T04:11:27;1.70;;;1.60;;
19907;SDS011;10116;53.112;7.356;2023-04-06T04:13:53;2.30;;;1.67;;
19907;SDS011;10116;53.112;7.356;2023-04-06T04:16:18;6.67;;;1.50;;
19907;SDS011;10116;53.112;7.356;2023-04-06T04:18:44;1.40;;;1.40;;
19907;SDS011;10116;53.112;7.356;2023-04-06T04:21:12;1.63;;;1.53;;
19907;SDS011;10116;53.112;7.356;2023-04-06T04:23:37;1.70;;;1.60;;
19907;SDS011;10116;53.112;7.356;2023-04-06T04:26:03;2.00;;;1.70;;
19907;SDS011;10116;53.112;7.356;2023-04-06T04:28:29;1.50;;;1.50;;
19907;SDS011;10116;53.112;7.356;2023-04-06T04:30:55;1.73;;;1.63;;
19907;SDS011;10116;53.112;7.356;2023-04-06T04:33:20;1.43;;;1.43;;
19907;SDS011;10116;53.112;7.356;2023-04-06T04:35:46;2.03;;;1.93;;
19907;SDS011;10116;53.112;7.356;2023-04-06T04:38:12;1.77;;;1.67;;
19907;SDS011;10116;53.112;7.356;2023-04-06T04:40:37;1.67;;;1.60;;
19907;SDS011;10116;53.112;7.356;2023-04-06T04:43:03;1.97;;;1.87;;
19907;SDS011;10116;53.112;7.356;2023-04-06T04:45:29;2.30;;;2.10;;
19907;SDS011;10116;53.112;7.356;2023-04-06T04:47:55;2.23;;;2.07;;
19907;SDS011;10116;53.112;7.356;2023-04-06T04:50:20;1.80;;;1.70;;
19907;SDS011;10116;53.112;7.356;2023-04-06T04:52:46;1.83;;;1.73;;
19907;SDS011;10116;53.112;7.356;2023-04-06T04:55:11;1.90;;;1.80;;
19907;SDS011;10116;53.112;7.356;2023-04-06T04:57:37;2.03;;;1.90;;
19907;SDS011;10116;53.112;7.356;2023-04-06T05:00:03;2.10;;;2.00;;
19907;SDS011;10116;53.112;7.356;2023-04-06T05:02:29;2.20;;;2.00;;
19907;SDS011;10116;53.112;7.356;2023-04-06T05:04:55;1.80;;;1.80;;
19907;SDS011;10116;53.112;7.356;2023-04-06T05:07:20;1.70;;;1.70;;
19907;SDS011;10116;53.112;7.356;2023-04-06T05:09:46;2.27;;;1.90;;
19907;SDS011;10116;53.112;7.356;2023-04-06T05:12:12;7.50;;;2.27;;
19907;SDS011;10116;53.112;7.356;2023-04-06T05:14:38;1.87;;;1.80;;
19907;SDS011;10116;53.112;7.356;2023-04-06T05:17:04;2.10;;;2.00;;
19907;SDS011;10116;53.112;7.356;2023-04-06T05:19:30;2.30;;;2.10;;
19907;SDS011;10116;53.112;7.356;2023-04-06T05:21:55;3.40;;;2.00;;
19907;SDS011;10116;53.112;7.356;2023-04-06T05:24:21;3.97;;;1.83;;
19907;SDS011;10116;53.112;7.356;2023-04-06T05:26:47;8.33;;;2.43;;
19907;SDS011;10116;53.112;7.356;2023-04-06T05:29:13;2.53;;;2.33;;
19907;SDS011;10116;53.112;7.356;2023-04-06T05:31:39;2.67;;;2.40;;
19907;SDS011;10116;53.112;7.356;2023-04-06T05:34:05;2.63;;;2.43;;
19907;SDS011;10116;53.112;7.356;2023-04-06T05:36:31;3.00;;;2.30;;
19907;SDS011;10116;53.112;7.356;2023-04-06T05:38:57;2.43;;;2.33;;
19907;SDS011;10116;53.112;7.356;2023-04-06T05:41:23;1.93;;;1.80;;
19907;SDS011;10116;53.112;7.356;2023-04-06T05:43:49;2.47;;;2.27;;
19907;SDS011;10116;53.112;7.356;2023-04-06T05:46:15;2.00;;;2.00;;
19907;SDS011;10116;53.112;7.356;2023-04-06T05:48:40;2.43;;;1.97;;
19907;SDS011;10116;53.112;7.356;2023-04-06T05:51:06;2.17;;;2.07;;
19907;SDS011;10116;53.112;7.356;2023-04-06T05:53:32;3.90;;;2.13;;
19907;SDS011;10116;53.112;7.356;2023-04-06T05:56:01;2.60;;;2.33;;
19907;SDS011;10116;53.112;7.356;2023-04-06T05:58:27;3.30;;;2.30;;
19907;SDS011;10116;53.112;7.356;2023-04-06T06:00:57;4.60;;;2.47;;
19907;SDS011;10116;53.112;7.356;2023-04-06T06:03:23;2.10;;;2.00;;
19907;SDS011;10116;53.112;7.356;2023-04-06T06:05:49;2.40;;;2.13;;
19907;SDS011;10116;53.112;7.356;2023-04-06T06:08:14;2.30;;;2.20;;
19907;SDS011;10116;53.112;7.356;2023-04-06T06:10:40;2.17;;;1.97;;
19907;SDS011;10116;53.112;7.356;2023-04-06T06:13:06;2.47;;;2.27;;
19907;SDS011;10116;53.112;7.356;2023-04-06T06:15:31;3.10;;;2.43;;
19907;SDS011;10116;53.112;7.356;2023-04-06T06:17:57;2.23;;;2.13;;
19907;SDS011;10116;53.112;7.356;2023-04-06T06:20:23;3.07;;;2.80;;
19907;SDS011;10116;53.112;7.356;2023-04-06T06:22:48;2.07;;;1.97;;
19907;SDS011;10116;53.112;7.356;2023-04-06T06:25:14;2.60;;;2.30;;
19907;SDS011;10116;53.112;7.356;2023-04-06T06:27:40;2.40;;;2.20;;
19907;SDS011;10116;53.112;7.356;2023-04-06T06:30:07;2.03;;;1.93;;
19907;SDS011;10116;53.112;7.356;2023-04-06T06:32:33;1.97;;;1.87;;
19907;SDS011;10116;53.112;7.356;2023-04-06T06:34:58;2.30;;;2.20;;
19907;SDS011;10116;53.112;7.356;2023-04-06T06:37:24;2.20;;;2.10;;
19907;SDS011;10116;53.112;7.356;2023-04-06T06:39:50;2.50;;;2.40;;
19907;SDS011;10116;53.112;7.356;2023-04-06T06:42:15;2.97;;;2.53;;
19907;SDS011;10116;53.112;7.356;2023-04-06T06:44:41;2.13;;;2.03;;
19907;SDS011;10116;53.112;7.356;2023-04-06T06:47:06;2.70;;;2.00;;
19907;SDS011;10116;53.112;7.356;2023-04-06T06:49:32;2.30;;;2.10;;
19907;SDS011;10116;53.112;7.356;2023-04-06T06:51:58;3.90;;;2.13;;
19907;SDS011;10116;53.112;7.356;2023-04-06T06:54:23;2.40;;;2.30;;
19907;SDS011;10116;53.112;7.356;2023-04-06T06:56:49;2.07;;;1.97;;
19907;SDS011;10116;53.112;7.356;2023-04-06T06:59:15;3.00;;;2.00;;
19907;SDS011;10116;53.112;7.356;2023-04-06T07:01:41;1.90;;;1.80;;
19907;SDS011;10116;53.112;7.356;2023-04-06T07:04:06;2.63;;;2.43;;
19907;SDS011;10116;53.112;7.356;2023-04-06T07:06:34;2.00;;;1.90;;
19907;SDS011;10116;53.112;7.356;2023-04-06T07:09:01;2.17;;;2.07;;
19907;SDS011;10116;53.112;7.356;2023-04-06T07:11:28;2.40;;;2.30;;
19907;SDS011;10116;53.112;7.356;2023-04-06T07:13:56;2.90;;;2.30;;
19907;SDS011;10116;53.112;7.356;2023-04-06T07:16:22;2.53;;;2.33;;
19907;SDS011;10116;53.112;7.356;2023-04-06T07:18:48;2.00;;;1.90;;
19907;SDS011;10116;53.112;7.356;2023-04-06T07:21:13;1.97;;;1.87;;
19907;SDS011;10116;53.112;7.356;2023-04-06T07:23:39;1.90;;;1.80;;
19907;SDS011;10116;53.112;7.356;2023-04-06T07:26:05;2.30;;;2.10;;
19907;SDS011;10116;53.112;7.356;2023-04-06T07:28:30;2.40;;;2.20;;
19907;SDS011;10116;53.112;7.356;2023-04-06T07:30:56;3.63;;;3.33;;
19907;SDS011;10116;53.112;7.356;2023-04-06T07:33:22;6.27;;;2.90;;
19907;SDS011;10116;53.112;7.356;2023-04-06T07:35:47;2.30;;;2.10;;
19907;SDS011;10116;53.112;7.356;2023-04-06T07:38:13;2.27;;;2.17;;
19907;SDS011;10116;53.112;7.356;2023-04-06T07:40:39;2.80;;;2.60;;
19907;SDS011;10116;53.112;7.356;2023-04-06T07:43:04;2.40;;;2.30;;
19907;SDS011;10116;53.112;7.356;2023-04-06T07:45:30;4.33;;;2.60;;
19907;SDS011;10116;53.112;7.356;2023-04-06T07:47:56;4.30;;;2.57;;
19907;SDS011;10116;53.112;7.356;2023-04-06T07:50:22;2.90;;;2.63;;
19907;SDS011;10116;53.112;7.356;2023-04-06T07:52:48;2.60;;;2.40;;
19907;SDS011;10116;53.112;7.356;2023-04-06T07:55:13;2.13;;;2.00;;
19907;SDS011;10116;53.112;7.356;2023-04-06T07:57:39;2.10;;;2.00;;
19907;SDS011;10116;53.112;7.356;2023-04-06T08:00:05;2.50;;;2.30;;
19907;SDS011;10116;53.112;7.356;2023-04-06T08:02:31;2.50;;;2.40;;
19907;SDS011;10116;53.112;7.356;2023-04-06T08:04:57;1.97;;;1.87;;
19907;SDS011;10116;53.112;7.356;2023-04-06T08:07:22;2.60;;;2.40;;
19907;SDS011;10116;53.112;7.356;2023-04-06T08:09:48;3.43;;;1.80;;
19907;SDS011;10116;53.112;7.356;2023-04-06T08:12:14;2.43;;;2.23;;
19907;SDS011;10116;53.112;7.356;2023-04-06T08:14:39;2.37;;;2.27;;
19907;SDS011;10116;53.112;7.356;2023-04-06T08:17:05;2.70;;;2.10;;
19907;SDS011;10116;53.112;7.356;2023-04-06T08:19:31;3.13;;;1.97;;
19907;SDS011;10116;53.112;7.356;2023-04-06T08:21:56;3.90;;;2.50;;
19907;SDS011;10116;53.112;7.356;2023-04-06T08:24:22;2.93;;;2.07;;
19907;SDS011;10116;53.112;7.356;2023-04-06T08:26:48;2.20;;;1.87;;
19907;SDS011;10116;53.112;7.356;2023-04-06T08:29:13;2.10;;;1.70;;
19907;SDS011;10116;53.112;7.356;2023-04-06T08:31:39;7.70;;;2.30;;
19907;SDS011;10116;53.112;7.356;2023-04-06T08:34:05;3.47;;;2.53;;
19907;SDS011;10116;53.112;7.356;2023-04-06T08:36:31;4.40;;;2.20;;
19907;SDS011;10116;53.112;7.356;2023-04-06T08:38:58;4.13;;;2.33;;
19907;SDS011;10116;53.112;7.356;2023-04-06T08:41:25;2.87;;;1.97;;
19907;SDS011;10116;53.112;7.356;2023-04-06T08:46:26;2.50;;;2.30;;
19907;SDS011;10116;53.112;7.356;2023-04-06T08:48:56;2.63;;;2.43;;
19907;SDS011;10116;53.112;7.356;2023-04-06T08:51:28;4.73;;;2.20;;
19907;SDS011;10116;53.112;7.356;2023-04-06T08:53:55;2.43;;;2.20;;
19907;SDS011;10116;53.112;7.356;2023-04-06T08:56:24;2.70;;;2.50;;
19907;SDS011;10116;53.112;7.356;2023-04-06T08:58:52;2.00;;;1.90;;
19907;SDS011;10116;53.112;7.356;2023-04-06T09:01:22;3.27;;;2.40;;
19907;SDS011;10116;53.112;7.356;2023-04-06T09:03:50;3.23;;;2.10;;
19907;SDS011;10116;53.112;7.356;2023-04-06T09:06:18;2.23;;;2.03;;
19907;SDS011;10116;53.112;7.356;2023-04-06T09:08:44;2.23;;;2.10;;
19907;SDS011;10116;53.112;7.356;2023-04-06T09:11:10;2.27;;;2.17;;
19907;SDS011;10116;53.112;7.356;2023-04-06T09:13:46;2.70;;;2.50;;
19907;SDS011;10116;53.112;7.356;2023-04-06T09:16:12;2.30;;;2.20;;
19907;SDS011;10116;53.112;7.356;2023-04-06T09:18:38;2.30;;;2.20;;
19907;SDS011;10116;53.112;7.356;2023-04-06T09:21:05;2.70;;;2.50;;
19907;SDS011;10116;53.112;7.356;2023-04-06T09:23:32;3.77;;;2.23;;
19907;SDS011;10116;53.112;7.356;2023-04-06T09:28:41;6.20;;;2.10;;
19907;SDS011;10116;53.112;7.356;2023-04-06T09:31:07;2.90;;;2.63;;
19907;SDS011;10116;53.112;7.356;2023-04-06T09:33:36;2.60;;;2.40;;
19907;SDS011;10116;53.112;7.356;2023-04-06T09:36:04;2.27;;;2.00;;
19907;SDS011;10116;53.112;7.356;2023-04-06T09:38:29;2.37;;;2.03;;
19907;SDS011;10116;53.112;7.356;2023-04-06T09:40:55;2.40;;;2.20;;
19907;SDS011;10116;53.112;7.356;2023-04-06T09:43:26;2.40;;;2.30;;
19907;SDS011;10116;53.112;7.356;2023-04-06T09:45:52;2.27;;;2.17;;
19907;SDS011;10116;53.112;7.356;2023-04-06T09:48:18;2.00;;;1.90;;
19907;SDS011;10116;53.112;7.356;2023-04-06T09:50:46;2.10;;;2.00;;
19907;SDS011;10116;53.112;7.356;2023-04-06T09:53:15;2.47;;;2.37;;
19907;SDS011;10116;53.112;7.356;2023-04-06T09:55:45;5.23;;;2.13;;
19907;SDS011;10116;53.112;7.356;2023-04-06T09:58:16;2.40;;;2.30;;
19907;SDS011;10116;53.112;7.356;2023-04-06T10:00:52;3.93;;;2.70;;
19907;SDS011;10116;53.112;7.356;2023-04-06T10:03:31;4.03;;;2.83;;
19907;SDS011;10116;53.112;7.356;2023-04-06T10:06:04;2.90;;;2.60;;
19907;SDS011;10116;53.112;7.356;2023-04-06T10:08:33;4.10;;;2.70;;
19907;SDS011;10116;53.112;7.356;2023-04-06T10:11:05;2.40;;;2.30;;
19907;SDS011;10116;53.112;7.356;2023-04-06T10:13:31;2.00;;;1.90;;
19907;SDS011;10116;53.112;7.356;2023-04-06T10:15:57;2.20;;;2.10;;
19907;SDS011;10116;53.112;7.356;2023-04-06T10:18:25;2.97;;;2.23;;
19907;SDS011;10116;53.112;7.356;2023-04-06T10:20:53;2.37;;;2.20;;
19907;SDS011;10116;53.112;7.356;2023-04-06T10:26:01;3.83;;;2.43;;
19907;SDS011;10116;53.112;7.356;2023-04-06T10:28:35;2.57;;;2.37;;
19907;SDS011;10116;53.112;7.356;2023-04-06T10:31:02;2.33;;;2.20;;
19907;SDS011;10116;53.112;7.356;2023-04-06T10:33:30;1.80;;;1.70;;
19907;SDS011;10116;53.112;7.356;2023-04-06T10:35:56;2.50;;;2.30;;
19907;SDS011;10116;53.112;7.356;2023-04-06T10:38:32;2.90;;;2.00;;
19907;SDS011;10116;53.112;7.356;2023-04-06T10:41:05;2.60;;;2.40;;
19907;SDS011;10116;53.112;7.356;2023-04-06T10:43:35;2.63;;;2.53;;
19907;SDS011;10116;53.112;7.356;2023-04-06T10:46:02;2.30;;;2.20;;
19907;SDS011;10116;53.112;7.356;2023-04-06T10:48:39;4.10;;;2.50;;
19907;SDS011;10116;53.112;7.356;2023-04-06T10:51:13;3.90;;;2.47;;
19907;SDS011;10116;53.112;7.356;2023-04-06T10:53:46;3.63;;;2.33;;
19907;SDS011;10116;53.112;7.356;2023-04-06T10:56:17;2.37;;;1.90;;
19907;SDS011;10116;53.112;7.356;2023-04-06T10:58:52;3.73;;;2.37;;
19907;SDS011;10116;53.112;7.356;2023-04-06T11:01:21;2.70;;;2.60;;
19907;SDS011;10116;53.112;7.356;2023-04-06T11:03:49;2.77;;;2.53;;
19907;SDS011;10116;53.112;7.356;2023-04-06T11:08:45;2.17;;;2.07;;
19907;SDS011;10116;53.112;7.356;2023-04-06T11:11:15;2.30;;;2.20;;
19907;SDS011;10116;53.112;7.356;2023-04-06T11:13:48;2.10;;;2.00;;
19907;SDS011;10116;53.112;7.356;2023-04-06T11:16:18;2.03;;;1.83;;
19907;SDS011;10116;53.112;7.356;2023-04-06T11:18:58;3.57;;;2.27;;
19907;SDS011;10116;53.112;7.356;2023-04-06T11:21:40;2.37;;;2.27;;
19907;SDS011;10116;53.112;7.356;2023-04-06T11:24:17;4.60;;;2.40;;
19907;SDS011;10116;53.112;7.356;2023-04-06T11:26:45;2.40;;;2.30;;
19907;SDS011;10116;53.112;7.356;2023-04-06T11:29:19;2.50;;;2.33;;
19907;SDS011;10116;53.112;7.356;2023-04-06T11:31:54;3.00;;;2.50;;
19907;SDS011;10116;53.112;7.356;2023-04-06T11:34:24;3.10;;;1.97;;
19907;SDS011;10116;53.112;7.356;2023-04-06T11:36:55;3.33;;;2.23;;
19907;SDS011;10116;53.112;7.356;2023-04-06T11:39:30;2.60;;;2.40;;
19907;SDS011;10116;53.112;7.356;2023-04-06T11:42:00;2.57;;;2.37;;
19907;SDS011;10116;53.112;7.356;2023-04-06T11:44:39;2.17;;;1.97;;
19907;SDS011;10116;53.112;7.356;2023-04-06T11:47:08;2.30;;;2.20;;
19907;SDS011;10116;53.112;7.356;2023-04-06T11:49:40;3.50;;;2.63;;
19907;SDS011;10116;53.112;7.356;2023-04-06T11:54:42;2.20;;;2.10;;
19907;SDS011;10116;53.112;7.356;2023-04-06T11:57:08;2.60;;;2.40;;
19907;SDS011;10116;53.112;7.356;2023-04-06T11:59:34;2.40;;;2.23;;
19907;SDS011;10116;53.112;7.356;2023-04-06T12:02:03;2.53;;;2.33;;
19907;SDS011;10116;53.112;7.356;2023-04-06T12:04:29;2.10;;;2.00;;
19907;SDS011;10116;53.112;7.356;2023-04-06T12:06:55;3.83;;;2.10;;
19907;SDS011;10116;53.112;7.356;2023-04-06T12:09:21;2.67;;;2.57;;
19907;SDS011;10116;53.112;7.356;2023-04-06T12:11:46;3.47;;;2.87;;
19907;SDS011;10116;53.112;7.356;2023-04-06T12:14:12;2.23;;;1.97;;
19907;SDS011;10116;53.112;7.356;2023-04-06T12:16:38;2.40;;;2.30;;
19907;SDS011;10116;53.112;7.356;2023-04-06T12:19:05;4.97;;;2.10;;
19907;SDS011;10116;53.112;7.356;2023-04-06T12:21:31;3.00;;;2.50;;
19907;SDS011;10116;53.112;7.356;2023-04-06T12:23:58;3.57;;;2.40;;
19907;SDS011;10116;53.112;7.356;2023-04-06T12:26:24;2.17;;;2.07;;
19907;SDS011;10116;53.112;7.356;2023-04-06T12:28:50;2.50;;;2.37;;
19907;SDS011;10116;53.112;7.356;2023-04-06T12:31:20;2.63;;;2.43;;
19907;SDS011;10116;53.112;7.356;2023-04-06T12:33:50;2.60;;;2.50;;
19907;SDS011;10116;53.112;7.356;2023-04-06T12:36:19;2.93;;;2.70;;
19907;SDS011;10116;53.112;7.356;2023-04-06T12:38:48;2.70;;;2.60;;
19907;SDS011;10116;53.112;7.356;2023-04-06T12:41:15;3.03;;;2.83;;
19907;SDS011;10116;53.112;7.356;2023-04-06T12:43:42;3.60;;;3.30;;
19907;SDS011;10116;53.112;7.356;2023-04-06T12:46:08;6.30;;;3.43;;
19907;SDS011;10116;53.112;7.356;2023-04-06T12:48:34;3.57;;;3.27;;
19907;SDS011;10116;53.112;7.356;2023-04-06T12:51:01;3.97;;;3.40;;
19907;SDS011;10116;53.112;7.356;2023-04-06T12:53:28;6.10;;;3.40;;
19907;SDS011;10116;53.112;7.356;2023-04-06T12:55:54;3.30;;;3.10;;
19907;SDS011;10116;53.112;7.356;2023-04-06T12:58:20;3.63;;;3.33;;
19907;SDS011;10116;53.112;7.356;2023-04-06T13:00:47;7.50;;;3.10;;
19907;SDS011;10116;53.112;7.356;2023-04-06T13:03:14;6.80;;;3.93;;
19907;SDS011;10116;53.112;7.356;2023-04-06T13:05:52;7.37;;;3.00;;
19907;SDS011;10116;53.112;7.356;2023-04-06T13:08:18;2.93;;;2.73;;
19907;SDS011;10116;53.112;7.356;2023-04-06T13:10:48;3.60;;;3.30;;
19907;SDS011;10116;53.112;7.356;2023-04-06T13:13:15;4.47;;;3.87;;
19907;SDS011;10116;53.112;7.356;2023-04-06T13:15:41;3.10;;;2.80;;
19907;SDS011;10116;53.112;7.356;2023-04-06T13:18:07;4.13;;;3.73;;
19907;SDS011;10116;53.112;7.356;2023-04-06T13:20:33;4.37;;;3.70;;
19907;SDS011;10116;53.112;7.356;2023-04-06T13:22:59;3.87;;;3.57;;
19907;SDS011;10116;53.112;7.356;2023-04-06T13:25:25;4.17;;;3.87;;
19907;SDS011;10116;53.112;7.356;2023-04-06T13:27:51;4.30;;;3.90;;
19907;SDS011;10116;53.112;7.356;2023-04-06T13:30:16;3.53;;;3.30;;
19907;SDS011;10116;53.112;7.356;2023-04-06T13:32:42;3.67;;;3.37;;
19907;SDS011;10116;53.112;7.356;2023-04-06T13:35:08;3.37;;;3.10;;
19907;SDS011;10116;53.112;7.356;2023-04-06T13:37:34;3.70;;;3.40;;
19907;SDS011;10116;53.112;7.356;2023-04-06T13:40:01;3.03;;;2.83;;
19907;SDS011;10116;53.112;7.356;2023-04-06T13:42:27;3.70;;;3.43;;
19907;SDS011;10116;53.112;7.356;2023-04-06T13:44:53;3.90;;;3.60;;
19907;SDS011;10116;53.112;7.356;2023-04-06T13:47:18;3.70;;;3.40;;
19907;SDS011;10116;53.112;7.356;2023-04-06T13:49:45;3.80;;;3.50;;
19907;SDS011;10116;53.112;7.356;2023-04-06T13:52:11;3.30;;;3.10;;
19907;SDS011;10116;53.112;7.356;2023-04-06T13:54:38;2.90;;;2.80;;
19907;SDS011;10116;53.112;7.356;2023-04-06T13:57:04;3.30;;;3.10;;
19907;SDS011;10116;53.112;7.356;2023-04-06T13:59:34;3.73;;;3.50;;
19907;SDS011;10116;53.112;7.356;2023-04-06T14:02:00;6.13;;;3.27;;
19907;SDS011;10116;53.112;7.356;2023-04-06T14:04:30;3.43;;;3.03;;
19907;SDS011;10116;53.112;7.356;2023-04-06T14:06:57;3.43;;;3.07;;
19907;SDS011;10116;53.112;7.356;2023-04-06T14:09:23;3.03;;;2.83;;
19907;SDS011;10116;53.112;7.356;2023-04-06T14:11:49;3.80;;;3.50;;
19907;SDS011;10116;53.112;7.356;2023-04-06T14:14:15;3.40;;;3.10;;
19907;SDS011;10116;53.112;7.356;2023-04-06T14:16:42;3.27;;;3.07;;
19907;SDS011;10116;53.112;7.356;2023-04-06T14:19:11;3.00;;;2.80;;
19907;SDS011;10116;53.112;7.356;2023-04-06T14:21:38;4.57;;;3.80;;
19907;SDS011;10116;53.112;7.356;2023-04-06T14:24:04;3.40;;;3.20;;
19907;SDS011;10116;53.112;7.356;2023-04-06T14:26:33;3.93;;;3.63;;
19907;SDS011;10116;53.112;7.356;2023-04-06T14:29:05;4.40;;;4.00;;
19907;SDS011;10116;53.112;7.356;2023-04-06T14:31:31;5.67;;;3.80;;
19907;SDS011;10116;53.112;7.356;2023-04-06T14:33:57;3.93;;;3.53;;
19907;SDS011;10116;53.112;7.356;2023-04-06T14:36:22;4.03;;;3.73;;
19907;SDS011;10116;53.112;7.356;2023-04-06T14:38:48;4.07;;;3.73;;
19907;SDS011;10116;53.112;7.356;2023-04-06T14:41:20;3.60;;;3.30;;
19907;SDS011;10116;53.112;7.356;2023-04-06T14:43:47;4.17;;;3.77;;
19907;SDS011;10116;53.112;7.356;2023-04-06T14:46:12;4.60;;;4.10;;
19907;SDS011;10116;53.112;7.356;2023-04-06T14:48:38;3.70;;;3.50;;
19907;SDS011;10116;53.112;7.356;2023-04-06T14:51:05;3.60;;;3.40;;
19907;SDS011;10116;53.112;7.356;2023-04-06T14:53:31;3.60;;;3.30;;
19907;SDS011;10116;53.112;7.356;2023-04-06T14:55:57;4.83;;;3.70;;
19907;SDS011;10116;53.112;7.356;2023-04-06T14:58:23;3.17;;;2.97;;